createdAt,value
2023-08-11T00:00:52.723Z,2.80
2023-08-11T00:03:19.535Z,2.80
2023-08-11T00:05:46.898Z,3.08
2023-08-11T00:08:14.453Z,4.22
2023-08-11T00:10:42.030Z,2.90
2023-08-11T00:13:13.783Z,3.35
2023-08-11T00:15:41.246Z,2.80
2023-08-11T00:18:11.381Z,2.63
2023-08-11T00:20:38.598Z,2.70
2023-08-11T00:23:06.037Z,2.95
2023-08-11T00:25:33.027Z,2.60
2023-08-11T00:28:02.310Z,2.63
2023-08-11T00:30:28.999Z,2.63
2023-08-11T00:32:55.833Z,2.38
2023-08-11T00:35:25.595Z,2.40
2023-08-11T00:37:52.299Z,2.67
2023-08-11T00:40:19.306Z,2.83
2023-08-11T00:42:46.846Z,2.60
2023-08-11T00:45:13.816Z,2.92
2023-08-11T00:47:43.206Z,36.10
2023-08-11T00:50:15.064Z,36.22
2023-08-11T00:52:45.686Z,5.72
2023-08-11T00:55:14.111Z,3.30
2023-08-11T00:57:42.112Z,2.53
2023-08-11T01:00:16.731Z,2.83
2023-08-11T01:02:46.103Z,2.40
2023-08-11T01:05:16.995Z,2.55
2023-08-11T01:08:13.468Z,2.80
2023-08-11T01:11:34.608Z,2.80
2023-08-11T01:14:16.677Z,2.70
2023-08-11T01:16:49.285Z,3.08
2023-08-11T01:19:29.649Z,2.47
2023-08-11T01:22:00.942Z,2.30
2023-08-11T01:24:32.585Z,2.28
2023-08-11T01:27:00.068Z,2.42
2023-08-11T01:29:27.523Z,2.65
2023-08-11T01:31:54.318Z,2.47
2023-08-11T01:34:22.416Z,2.60
2023-08-11T01:37:05.383Z,2.20
2023-08-11T01:39:33.197Z,2.40
2023-08-11T01:41:59.917Z,2.60
2023-08-11T01:44:26.973Z,3.03
2023-08-11T01:46:57.532Z,3.05
2023-08-11T01:49:28.188Z,3.20
2023-08-11T01:51:57.240Z,4.90
2023-08-11T01:54:24.729Z,60.13
2023-08-11T01:56:52.848Z,6.90
2023-08-11T01:59:19.539Z,3.30
2023-08-11T02:01:46.338Z,2.33
2023-08-11T02:04:14.026Z,2.45
2023-08-11T02:06:41.686Z,2.40
2023-08-11T02:09:13.625Z,2.53
2023-08-11T02:11:40.694Z,2.45
2023-08-11T02:14:07.470Z,2.42
2023-08-11T02:16:34.783Z,2.60
2023-08-11T02:19:01.666Z,2.30
2023-08-11T02:21:29.707Z,2.92
2023-08-11T02:23:56.596Z,2.97
2023-08-11T02:26:23.789Z,2.40
2023-08-11T02:28:50.893Z,2.72
2023-08-11T02:31:19.218Z,2.92
2023-08-11T02:33:46.413Z,2.75
2023-08-11T02:36:18.570Z,36.97
2023-08-11T02:38:45.214Z,19.02
2023-08-11T02:41:12.354Z,4.85
2023-08-11T02:43:39.033Z,3.10
2023-08-11T02:46:07.177Z,3.00
2023-08-11T02:48:35.072Z,2.15
2023-08-11T02:51:04.956Z,2.40
2023-08-11T02:53:32.905Z,2.35
2023-08-11T02:56:07.671Z,2.67
2023-08-11T02:58:34.823Z,2.65
2023-08-11T03:01:02.196Z,2.67
2023-08-11T03:03:29.962Z,2.58
2023-08-11T03:05:58.074Z,2.78
2023-08-11T03:08:24.962Z,2.50
2023-08-11T03:10:57.126Z,2.80
2023-08-11T03:13:25.087Z,2.78
2023-08-11T03:15:53.428Z,2.22
2023-08-11T03:18:20.820Z,2.08
2023-08-11T03:20:48.732Z,2.42
2023-08-11T03:23:18.452Z,2.30
2023-08-11T03:25:45.924Z,2.53
2023-08-11T03:28:12.739Z,2.45
2023-08-11T03:30:39.778Z,2.55
2023-08-11T03:33:06.892Z,2.38
2023-08-11T03:35:37.415Z,2.28
2023-08-11T03:38:04.367Z,2.25
2023-08-11T03:40:31.129Z,2.28
2023-08-11T03:42:57.775Z,2.40
2023-08-11T03:45:25.268Z,2.80
2023-08-11T03:47:52.273Z,2.50
2023-08-11T03:50:19.122Z,2.58
2023-08-11T03:52:46.279Z,2.45
2023-08-11T03:55:13.733Z,2.33
2023-08-11T03:57:40.514Z,2.50
2023-08-11T04:00:16.126Z,2.65
2023-08-11T04:02:45.114Z,2.60
2023-08-11T04:05:12.210Z,2.42
2023-08-11T04:07:40.028Z,2.60
2023-08-11T04:10:07.848Z,2.78
2023-08-11T04:12:34.603Z,2.95
2023-08-11T04:15:01.360Z,2.17
2023-08-11T04:17:28.138Z,2.42
2023-08-11T04:19:55.162Z,2.97
2023-08-11T04:22:32.780Z,2.53
2023-08-11T04:25:06.391Z,2.70
2023-08-11T04:27:33.044Z,2.40
2023-08-11T04:29:59.829Z,2.80
2023-08-11T04:32:26.629Z,3.08
2023-08-11T04:34:53.418Z,9.50
2023-08-11T04:37:20.071Z,63.72
2023-08-11T04:39:46.790Z,37.75
2023-08-11T04:42:17.555Z,41.10
2023-08-11T04:44:44.550Z,42.85
2023-08-11T04:47:11.612Z,101.32
2023-08-11T04:49:38.367Z,45.90
2023-08-11T04:52:05.163Z,6.88
2023-08-11T04:54:31.820Z,27.75
2023-08-11T04:56:58.470Z,17.08
2023-08-11T04:59:25.720Z,5.60
2023-08-11T05:01:52.419Z,78.50
2023-08-11T05:04:19.089Z,135.93
2023-08-11T05:06:45.748Z,74.97
2023-08-11T05:09:12.370Z,31.95
2023-08-11T05:11:39.073Z,65.38
2023-08-11T05:14:06.042Z,110.15
2023-08-11T05:16:32.688Z,76.00
2023-08-11T05:18:59.428Z,33.25
2023-08-11T05:21:26.215Z,61.15
2023-08-11T05:23:52.970Z,16.83
2023-08-11T05:26:19.745Z,85.10
2023-08-11T05:28:46.813Z,12.68
2023-08-11T05:31:13.613Z,6.28
2023-08-11T05:33:42.637Z,9.55
2023-08-11T05:36:10.039Z,4.13
2023-08-11T05:38:36.763Z,5.80
2023-08-11T05:41:04.291Z,2.20
2023-08-11T05:43:31.171Z,3.20
2023-08-11T05:45:58.455Z,2.83
2023-08-11T05:48:25.402Z,2.63
2023-08-11T05:50:52.254Z,8.93
2023-08-11T05:53:18.909Z,6.22
2023-08-11T05:55:45.619Z,3.90
2023-08-11T05:58:12.353Z,2.47
2023-08-11T06:00:39.214Z,2.67
2023-08-11T06:03:05.958Z,2.38
2023-08-11T06:05:33.733Z,2.45
2023-08-11T06:08:06.819Z,4.47
2023-08-11T06:10:34.909Z,14.48
2023-08-11T06:13:01.789Z,6.88
2023-08-11T06:15:28.485Z,4.80
2023-08-11T06:17:55.212Z,5.60
2023-08-11T06:20:34.383Z,2.90
2023-08-11T06:23:06.225Z,3.03
2023-08-11T06:25:32.909Z,2.97
2023-08-11T06:27:59.594Z,39.25
2023-08-11T06:30:29.194Z,162.07
2023-08-11T06:32:56.341Z,92.43
2023-08-11T06:35:23.459Z,262.65
2023-08-11T06:37:50.319Z,70.00
2023-08-11T06:40:17.178Z,218.93
2023-08-11T06:42:44.176Z,318.98
2023-08-11T06:45:11.699Z,639.33
2023-08-11T06:47:38.728Z,591.78
2023-08-11T06:50:06.195Z,647.15
2023-08-11T06:52:33.011Z,637.10
2023-08-11T06:54:59.775Z,634.80
2023-08-11T06:57:26.594Z,499.00
2023-08-11T06:59:53.356Z,658.65
2023-08-11T07:02:20.117Z,627.30
2023-08-11T07:04:46.818Z,286.45
2023-08-11T07:07:14.740Z,273.02
2023-08-11T07:09:42.754Z,402.25
2023-08-11T07:12:09.533Z,264.35
2023-08-11T07:14:36.343Z,232.80
2023-08-11T07:17:03.548Z,233.70
2023-08-11T07:19:30.359Z,198.30
2023-08-11T07:21:57.082Z,113.25
2023-08-11T07:24:23.744Z,110.18
2023-08-11T07:26:50.540Z,72.90
2023-08-11T07:29:17.211Z,46.42
2023-08-11T07:31:45.302Z,31.58
2023-08-11T07:34:12.348Z,22.10
2023-08-11T07:36:39.345Z,16.83
2023-08-11T07:39:22.129Z,12.32
2023-08-11T07:41:52.221Z,9.77
2023-08-11T07:44:19.325Z,7.47
2023-08-11T07:46:46.314Z,5.95
2023-08-11T07:49:13.656Z,5.32
2023-08-11T07:51:42.252Z,3.45
2023-08-11T07:54:09.960Z,3.58
2023-08-11T07:56:36.961Z,2.90
2023-08-11T07:59:03.958Z,2.75
2023-08-11T08:01:31.031Z,2.83
2023-08-11T08:03:57.869Z,6.80
2023-08-11T08:06:25.174Z,4.40
2023-08-11T08:08:52.033Z,7.57
2023-08-11T08:11:18.823Z,8.77
2023-08-11T08:13:45.564Z,6.38
2023-08-11T08:16:12.814Z,4.35
2023-08-11T08:18:39.641Z,3.92
2023-08-11T08:21:06.995Z,3.33
2023-08-11T08:23:34.256Z,3.10
2023-08-11T08:26:01.020Z,3.03
2023-08-11T08:28:34.358Z,3.08
2023-08-11T08:31:01.268Z,11.23
2023-08-11T08:33:29.127Z,17.50
2023-08-11T08:36:11.480Z,16.33
2023-08-11T08:38:38.192Z,10.10
2023-08-11T08:41:12.646Z,5.43
2023-08-11T08:43:39.425Z,4.40
2023-08-11T08:46:08.107Z,3.80
2023-08-11T08:49:02.388Z,3.17
2023-08-11T08:51:33.814Z,3.72
2023-08-11T08:54:09.362Z,3.00
2023-08-11T08:56:41.165Z,3.15
2023-08-11T08:59:10.321Z,3.78
2023-08-11T09:01:38.991Z,8.20
2023-08-11T09:04:08.214Z,13.80
2023-08-11T09:06:36.751Z,9.27
2023-08-11T09:09:06.020Z,21.85
2023-08-11T09:11:32.987Z,60.70
2023-08-11T09:14:14.174Z,95.00
2023-08-11T09:16:41.541Z,216.43
2023-08-11T09:19:14.166Z,180.85
2023-08-11T09:21:44.851Z,166.20
2023-08-11T09:24:16.077Z,144.13
2023-08-11T09:26:45.832Z,225.88
2023-08-11T09:29:15.009Z,201.45
2023-08-11T09:31:42.751Z,176.65
2023-08-11T09:34:20.943Z,210.57
2023-08-11T09:36:50.095Z,147.05
2023-08-11T09:39:18.369Z,88.80
2023-08-11T09:41:50.220Z,39.17
2023-08-11T09:44:19.750Z,18.50
2023-08-11T09:46:47.588Z,8.35
2023-08-11T09:49:21.843Z,6.03
2023-08-11T09:51:54.966Z,5.30
2023-08-11T09:54:24.003Z,5.10
2023-08-11T09:56:54.710Z,4.60
2023-08-11T09:59:27.285Z,4.00
2023-08-11T10:02:02.971Z,4.85
2023-08-11T10:04:44.558Z,3.50
2023-08-11T10:07:17.278Z,3.30
2023-08-11T10:09:48.422Z,3.00
2023-08-11T10:12:16.174Z,2.80
2023-08-11T10:14:44.037Z,2.80
2023-08-11T10:17:17.313Z,2.72
2023-08-11T10:19:44.596Z,3.00
2023-08-11T10:22:12.855Z,3.35
2023-08-11T10:24:42.045Z,7.85
2023-08-11T10:27:09.448Z,13.15
2023-08-11T10:29:40.484Z,9.35
2023-08-11T10:32:12.048Z,6.00
2023-08-11T10:34:38.940Z,4.72
2023-08-11T10:37:08.591Z,3.72
2023-08-11T10:39:40.222Z,3.75
2023-08-11T10:42:14.069Z,2.90
2023-08-11T10:44:47.684Z,4.13
2023-08-11T10:47:14.547Z,2.80
2023-08-11T10:49:44.373Z,2.60
2023-08-11T10:52:12.947Z,7.05
2023-08-11T10:54:52.017Z,8.30
2023-08-11T10:57:18.811Z,40.33
2023-08-11T10:59:45.597Z,27.30
2023-08-11T11:02:13.949Z,94.88
2023-08-11T11:04:42.775Z,111.95
2023-08-11T11:07:09.448Z,60.50
2023-08-11T11:09:36.189Z,127.90
2023-08-11T11:12:02.911Z,137.48
2023-08-11T11:14:31.288Z,47.22
2023-08-11T11:17:01.103Z,49.35
2023-08-11T11:19:28.683Z,16.65
2023-08-11T11:21:55.988Z,18.05
2023-08-11T11:24:23.077Z,12.95
2023-08-11T11:26:50.089Z,6.72
2023-08-11T11:29:22.217Z,6.75
2023-08-11T11:31:49.070Z,7.97
2023-08-11T11:34:15.912Z,6.93
2023-08-11T11:36:43.147Z,4.88
2023-08-11T11:39:11.056Z,5.78
2023-08-11T11:41:37.758Z,4.38
2023-08-11T11:44:04.865Z,4.80
2023-08-11T11:46:34.011Z,6.55
2023-08-11T11:49:12.664Z,3.67
2023-08-11T11:51:47.552Z,3.67
2023-08-11T11:54:14.473Z,3.30
2023-08-11T11:56:47.132Z,3.40
2023-08-11T11:59:17.438Z,3.58
2023-08-11T12:01:44.682Z,3.30
2023-08-11T12:04:11.958Z,3.97
2023-08-11T12:06:38.832Z,3.10
2023-08-11T12:09:11.690Z,3.55
2023-08-11T12:11:41.778Z,2.90
2023-08-11T12:14:08.814Z,3.50
2023-08-11T12:16:37.202Z,3.38
2023-08-11T12:19:04.787Z,3.58
2023-08-11T12:21:34.781Z,3.50
2023-08-11T12:24:01.809Z,3.65
2023-08-11T12:26:29.675Z,3.70
2023-08-11T12:28:59.556Z,3.42
2023-08-11T12:31:26.343Z,3.10
2023-08-11T12:33:53.130Z,3.33
2023-08-11T12:36:20.151Z,3.60
2023-08-11T12:38:48.891Z,3.40
2023-08-11T12:41:19.028Z,3.15
2023-08-11T12:43:45.775Z,3.03
2023-08-11T12:46:12.662Z,3.47
2023-08-11T12:48:39.404Z,3.60
2023-08-11T12:51:06.688Z,3.35
2023-08-11T12:53:33.428Z,3.85
2023-08-11T12:56:00.237Z,37.25
2023-08-11T12:58:27.773Z,47.53
2023-08-11T13:00:54.457Z,18.75
2023-08-11T13:03:21.267Z,10.00
2023-08-11T13:05:48.888Z,6.22
2023-08-11T13:08:15.566Z,4.20
2023-08-11T13:10:42.450Z,4.45
2023-08-11T13:13:10.825Z,3.13
2023-08-11T13:15:39.700Z,3.30
2023-08-11T13:18:06.457Z,3.13
2023-08-11T13:20:33.248Z,2.95
2023-08-11T13:22:59.930Z,3.70
2023-08-11T13:25:26.665Z,3.40
2023-08-11T13:27:53.374Z,3.40
2023-08-11T13:30:22.344Z,2.83
2023-08-11T13:32:49.222Z,45.25
2023-08-11T13:35:25.350Z,43.75
2023-08-11T13:37:52.152Z,24.35
2023-08-11T13:40:20.177Z,15.30
2023-08-11T13:42:46.870Z,9.95
2023-08-11T13:45:14.593Z,7.35
2023-08-11T13:47:41.497Z,51.50
2023-08-11T13:50:08.880Z,65.53
2023-08-11T13:52:35.628Z,46.75
2023-08-11T13:55:07.200Z,25.58
2023-08-11T13:57:35.309Z,16.35
2023-08-11T14:00:02.044Z,10.82
2023-08-11T14:02:31.949Z,7.10
2023-08-11T14:04:58.764Z,5.88
2023-08-11T14:07:30.644Z,4.97
2023-08-11T14:09:59.403Z,4.13
2023-08-11T14:12:26.135Z,4.03
2023-08-11T14:14:52.769Z,3.75
2023-08-11T14:17:19.493Z,3.10
2023-08-11T14:19:46.151Z,3.70
2023-08-11T14:22:12.824Z,35.28
2023-08-11T14:24:39.563Z,57.38
2023-08-11T14:27:07.122Z,76.72
2023-08-11T14:29:33.772Z,41.72
2023-08-11T14:32:13.841Z,27.85
2023-08-11T14:34:45.319Z,15.48
2023-08-11T14:37:15.147Z,10.80
2023-08-11T14:39:43.713Z,8.70
2023-08-11T14:42:10.525Z,6.68
2023-08-11T14:44:37.644Z,5.75
2023-08-11T14:47:04.382Z,4.80
2023-08-11T14:49:31.100Z,4.18
2023-08-11T14:51:57.775Z,88.22
2023-08-11T14:54:27.744Z,63.60
2023-08-11T14:56:55.599Z,42.97
2023-08-11T14:59:22.361Z,31.38
2023-08-11T15:01:49.170Z,19.48
2023-08-11T15:04:15.887Z,12.18
2023-08-11T15:06:42.576Z,10.65
2023-08-11T15:09:09.488Z,7.18
2023-08-11T15:11:36.762Z,62.85
2023-08-11T15:14:03.679Z,58.95
2023-08-11T15:16:30.726Z,46.95
2023-08-11T15:18:57.519Z,31.08
2023-08-11T15:21:25.360Z,21.77
2023-08-11T15:23:52.066Z,13.98
2023-08-11T15:26:19.544Z,9.18
2023-08-11T15:28:46.206Z,7.13
2023-08-11T15:31:13.018Z,5.88
2023-08-11T15:33:39.819Z,4.90
2023-08-11T15:36:06.554Z,33.00
2023-08-11T15:38:33.330Z,47.45
2023-08-11T15:41:03.764Z,38.08
2023-08-11T15:43:32.964Z,26.38
2023-08-11T15:45:59.926Z,17.55
2023-08-11T15:48:28.618Z,13.43
2023-08-11T15:50:55.633Z,32.13
2023-08-11T15:53:22.650Z,68.10
2023-08-11T15:55:49.432Z,54.63
2023-08-11T15:58:16.253Z,34.50
2023-08-11T16:00:43.591Z,22.35
2023-08-11T16:03:10.744Z,14.60
2023-08-11T16:05:37.741Z,12.00
2023-08-11T16:08:05.300Z,9.20
2023-08-11T16:10:37.682Z,8.30
2023-08-11T16:13:04.855Z,39.70
2023-08-11T16:15:32.254Z,54.30
2023-08-11T16:17:58.929Z,56.20
2023-08-11T16:20:25.777Z,35.97
2023-08-11T16:22:53.231Z,53.35
2023-08-11T16:25:20.204Z,72.63
2023-08-11T16:27:46.861Z,69.13
2023-08-11T16:30:14.139Z,51.83
2023-08-11T16:32:40.871Z,35.45
2023-08-11T16:35:09.173Z,16.00
2023-08-11T16:37:36.051Z,17.58
2023-08-11T16:40:03.897Z,14.48
2023-08-11T16:42:30.641Z,10.20
2023-08-11T16:44:57.325Z,8.30
2023-08-11T16:47:24.034Z,6.80
2023-08-11T16:49:51.529Z,6.10
2023-08-11T16:52:18.174Z,5.53
2023-08-11T16:54:44.874Z,3.58
2023-08-11T16:57:13.520Z,3.53
2023-08-11T16:59:40.434Z,4.00
2023-08-11T17:02:07.219Z,3.50
2023-08-11T17:04:33.921Z,3.53
2023-08-11T17:07:00.605Z,3.30
2023-08-11T17:09:27.330Z,3.65
2023-08-11T17:11:54.012Z,5.70
2023-08-11T17:14:20.663Z,3.97
2023-08-11T17:16:47.375Z,3.55
2023-08-11T17:19:14.013Z,3.42
2023-08-11T17:21:42.641Z,5.55
2023-08-11T17:24:09.274Z,4.18
2023-08-11T17:26:35.955Z,3.55
2023-08-11T17:29:02.594Z,3.67
2023-08-11T17:31:29.388Z,3.35
2023-08-11T17:33:56.148Z,3.25
2023-08-11T17:36:27.376Z,3.05
2023-08-11T17:38:55.995Z,26.73
2023-08-11T17:41:25.147Z,43.78
2023-08-11T17:43:52.698Z,39.70
2023-08-11T17:46:20.716Z,80.10
2023-08-11T17:48:47.551Z,125.13
2023-08-11T17:51:14.335Z,192.40
2023-08-11T17:53:41.649Z,245.65
2023-08-11T17:56:09.237Z,324.85
2023-08-11T17:58:35.946Z,284.20
2023-08-11T18:01:02.693Z,399.10
2023-08-11T18:03:29.532Z,416.90
2023-08-11T18:05:56.698Z,369.42
2023-08-11T18:08:23.425Z,399.30
2023-08-11T18:10:50.176Z,373.63
2023-08-11T18:13:17.651Z,342.60
2023-08-11T18:15:44.486Z,376.55
2023-08-11T18:18:11.180Z,325.30
2023-08-11T18:20:37.914Z,257.25
2023-08-11T18:23:04.616Z,229.23
2023-08-11T18:25:31.497Z,209.43
2023-08-11T18:27:58.252Z,119.72
2023-08-11T18:30:24.885Z,152.48
2023-08-11T18:32:51.627Z,134.93
2023-08-11T18:35:18.415Z,179.82
2023-08-11T18:37:45.083Z,11.35
2023-08-11T18:40:12.272Z,5.25
2023-08-11T18:42:39.043Z,3.53
2023-08-11T18:45:07.275Z,4.65
2023-08-11T18:47:35.166Z,6.57
2023-08-11T18:50:02.073Z,4.35
2023-08-11T18:52:28.689Z,3.47
2023-08-11T18:54:55.391Z,4.45
2023-08-11T18:57:22.107Z,3.10
2023-08-11T18:59:48.838Z,3.25
2023-08-11T19:02:16.040Z,2.92
2023-08-11T19:04:42.889Z,3.17
2023-08-11T19:07:09.606Z,2.85
2023-08-11T19:09:36.338Z,2.90
2023-08-11T19:12:03.070Z,3.50
2023-08-11T19:14:30.119Z,12.15
2023-08-11T19:16:57.580Z,32.50
2023-08-11T19:19:24.595Z,6.38
2023-08-11T19:21:51.218Z,4.20
2023-08-11T19:24:17.990Z,3.53
2023-08-11T19:26:45.833Z,2.90
2023-08-11T19:29:13.493Z,3.17
2023-08-11T19:31:40.335Z,3.97
2023-08-11T19:34:07.091Z,3.20
2023-08-11T19:36:35.121Z,7.25
2023-08-11T19:39:03.682Z,25.35
2023-08-11T19:41:30.323Z,6.35
2023-08-11T19:43:57.546Z,5.18
2023-08-11T19:46:24.372Z,3.05
2023-08-11T19:48:51.105Z,3.33
2023-08-11T19:51:17.792Z,2.95
2023-08-11T19:53:44.987Z,3.33
2023-08-11T19:56:11.672Z,3.20
2023-08-11T19:58:38.348Z,3.58
2023-08-11T20:01:07.060Z,6.03
2023-08-11T20:03:33.860Z,12.95
2023-08-11T20:06:01.058Z,14.15
2023-08-11T20:08:27.833Z,16.02
2023-08-11T20:10:54.514Z,7.72
2023-08-11T20:13:21.235Z,4.38
2023-08-11T20:15:48.090Z,3.15
2023-08-11T20:18:14.996Z,3.33
2023-08-11T20:20:45.510Z,3.78
2023-08-11T20:23:12.263Z,3.70
2023-08-11T20:25:39.230Z,3.75
2023-08-11T20:28:06.373Z,3.83
2023-08-11T20:30:33.176Z,3.83
2023-08-11T20:33:00.183Z,3.20
2023-08-11T20:35:28.659Z,3.30
2023-08-11T20:37:58.791Z,3.60
2023-08-11T20:40:25.474Z,3.53
2023-08-11T20:42:52.238Z,3.65
2023-08-11T20:45:19.060Z,3.40
2023-08-11T20:47:45.744Z,3.50
2023-08-11T20:50:12.488Z,3.35
2023-08-11T20:52:39.220Z,3.70
2023-08-11T20:55:06.572Z,3.22
2023-08-11T20:57:33.253Z,2.95
2023-08-11T20:59:59.911Z,3.35
2023-08-11T21:02:26.587Z,3.65
2023-08-11T21:04:53.212Z,3.67
2023-08-11T21:07:19.879Z,3.53
2023-08-11T21:09:46.619Z,3.75
2023-08-11T21:12:13.316Z,3.63
2023-08-11T21:14:39.942Z,6.45
2023-08-11T21:17:09.292Z,22.23
2023-08-11T21:19:36.385Z,15.75
2023-08-11T21:22:03.230Z,5.22
2023-08-11T21:24:29.921Z,4.20
2023-08-11T21:26:56.638Z,3.40
2023-08-11T21:29:23.352Z,3.63
2023-08-11T21:31:50.128Z,3.40
2023-08-11T21:34:16.854Z,3.92
2023-08-11T21:36:43.628Z,3.65
2023-08-11T21:39:11.048Z,3.50
2023-08-11T21:41:37.771Z,3.85
2023-08-11T21:44:04.804Z,3.38
2023-08-11T21:46:32.089Z,3.38
2023-08-11T21:48:58.956Z,3.60
2023-08-11T21:51:26.464Z,3.83
2023-08-11T21:53:53.281Z,3.50
2023-08-11T21:56:19.960Z,3.65
2023-08-11T21:58:46.724Z,3.28
2023-08-11T22:01:13.671Z,3.67
2023-08-11T22:03:40.353Z,3.53
2023-08-11T22:06:07.222Z,3.50
2023-08-11T22:08:34.053Z,3.78
2023-08-11T22:11:00.797Z,3.80
2023-08-11T22:13:27.647Z,3.78
2023-08-11T22:15:54.415Z,43.13
2023-08-11T22:18:21.119Z,32.00
2023-08-11T22:20:47.830Z,17.23
2023-08-11T22:23:14.522Z,8.43
2023-08-11T22:25:41.236Z,4.35
2023-08-11T22:28:08.563Z,3.58
2023-08-11T22:30:36.062Z,4.18
2023-08-11T22:33:03.472Z,4.38
2023-08-11T22:35:30.376Z,3.50
2023-08-11T22:37:57.874Z,3.97
2023-08-11T22:40:24.558Z,3.75
2023-08-11T22:42:51.248Z,3.65
2023-08-11T22:45:18.142Z,3.50
2023-08-11T22:47:45.026Z,17.45
2023-08-11T22:50:11.804Z,12.65
2023-08-11T22:52:38.481Z,11.95
2023-08-11T22:55:05.735Z,9.60
2023-08-11T22:57:32.376Z,5.85
2023-08-11T22:59:59.104Z,24.92
2023-08-11T23:02:25.956Z,9.80
2023-08-11T23:04:55.471Z,6.55
2023-08-11T23:07:25.766Z,4.38
2023-08-11T23:09:52.480Z,4.05
2023-08-11T23:12:19.098Z,4.03
2023-08-11T23:14:45.797Z,4.22
2023-08-11T23:17:12.744Z,3.95
2023-08-11T23:19:39.765Z,3.60
2023-08-11T23:22:06.533Z,3.92
2023-08-11T23:24:33.919Z,3.92
2023-08-11T23:27:01.803Z,3.40
2023-08-11T23:29:28.439Z,3.80
2023-08-11T23:31:55.225Z,3.50
2023-08-11T23:34:21.992Z,3.50
2023-08-11T23:36:48.691Z,3.83
2023-08-11T23:39:15.344Z,3.70
2023-08-11T23:41:41.995Z,3.63
2023-08-11T23:44:08.693Z,3.42
2023-08-11T23:46:35.421Z,3.58
2023-08-11T23:49:02.106Z,4.15
2023-08-11T23:51:28.794Z,3.47
2023-08-11T23:53:57.390Z,4.15
2023-08-11T23:56:24.391Z,4.13
2023-08-11T23:58:52.073Z,3.65
